Time;durP1;ratioP1;P1;durP2;ratioP2;P2;SDS_P1;SDS_P2;PMS_P1;PMS_P2;Temp;Humidity;BMP_temperature;BMP_pressure;BME280_temperature;BME280_humidity;BME280_pressure;Samples;Min_cycle;Max_cycle;Signal;HPM_P1;HPM_P2
2022/07/19 00:02:11;;;;;;;0.30;0.20;;;24.80;60.50;;;;;;4786326;29;20059;-76
2022/07/19 00:04:38;;;;;;;0.85;0.38;;;24.70;60.80;;;;;;4783412;29;20087;-77
2022/07/19 00:07:05;;;;;;;0.32;0.30;;;24.70;61.20;;;;;;4779990;29;20043;-80
2022/07/19 00:09:32;;;;;;;0.47;0.40;;;24.60;60.70;;;;;;4804105;29;20561;-79
2022/07/19 00:11:58;;;;;;;0.15;0.13;;;24.60;60.80;;;;;;4810490;29;20050;-77
2022/07/19 00:14:25;;;;;;;0.45;0.35;;;24.60;60.50;;;;;;4798282;29;20082;-77
2022/07/19 00:16:52;;;;;;;0.63;0.20;;;24.60;60.80;;;;;;4800012;29;20058;-77
2022/07/19 00:19:20;;;;;;;0.15;0.15;;;24.50;60.70;;;;;;4806716;29;20059;-77
2022/07/19 00:21:47;;;;;;;0.55;0.30;;;24.40;61.00;;;;;;4799706;29;20226;-77
2022/07/19 00:24:14;;;;;;;0.20;0.20;;;24.40;60.70;;;;;;4782600;29;20862;-77
2022/07/19 00:26:41;;;;;;;0.30;0.30;;;24.30;61.10;;;;;;4803067;29;20062;-77
2022/07/19 00:29:08;;;;;;;0.60;0.30;;;24.30;61.50;;;;;;4809201;29;20054;-78
2022/07/19 00:31:35;;;;;;;0.30;0.30;;;24.20;60.90;;;;;;4794776;29;20093;-77
2022/07/19 00:34:02;;;;;;;0.15;0.15;;;24.20;61.20;;;;;;4798076;29;20058;-77
2022/07/19 00:36:29;;;;;;;0.20;0.20;;;24.20;61.10;;;;;;4798792;29;20063;-77
2022/07/19 00:38:56;;;;;;;0.40;0.30;;;24.20;61.20;;;;;;4797262;29;20050;-77
2022/07/19 00:41:23;;;;;;;0.40;0.40;;;24.10;61.30;;;;;;4816331;29;20506;-77
2022/07/19 00:43:51;;;;;;;0.57;0.40;;;24.10;61.00;;;;;;4785003;29;20075;-77
2022/07/19 00:46:21;;;;;;;0.20;0.15;;;24.10;61.00;;;;;;4817198;29;20069;-77
2022/07/19 00:48:48;;;;;;;0.45;0.22;;;24.10;61.60;;;;;;4798672;29;20081;-77
2022/07/19 00:51:16;;;;;;;0.38;0.30;;;24.10;61.60;;;;;;4798896;29;20055;-78
2022/07/19 00:53:43;;;;;;;0.10;0.10;;;24.00;61.70;;;;;;4798945;29;20531;-77
2022/07/19 00:56:11;;;;;;;0.52;0.40;;;24.00;61.90;;;;;;4785457;29;20058;-77
2022/07/19 00:58:38;;;;;;;0.10;0.10;;;24.00;61.80;;;;;;4783280;29;20149;-77
2022/07/19 01:01:05;;;;;;;0.20;0.17;;;24.00;62.30;;;;;;4779155;29;20062;-77
2022/07/19 01:03:34;;;;;;;0.25;0.22;;;23.90;62.30;;;;;;4804381;29;20050;-77
2022/07/19 01:06:01;;;;;;;0.20;0.20;;;23.90;62.20;;;;;;4782389;29;20123;-77
2022/07/19 01:08:29;;;;;;;0.30;0.30;;;23.90;62.40;;;;;;4803324;29;20434;-77
2022/07/19 01:10:56;;;;;;;0.63;0.30;;;23.90;62.60;;;;;;4797799;29;20097;-77
2022/07/19 01:13:22;;;;;;;0.28;0.20;;;23.90;62.60;;;;;;4807158;29;20074;-76
2022/07/19 01:15:49;;;;;;;0.30;0.20;;;23.80;62.90;;;;;;4797875;29;20130;-76
2022/07/19 01:18:16;;;;;;;0.20;0.20;;;23.80;63.10;;;;;;4781287;29;20122;-79
2022/07/19 01:20:43;;;;;;;0.40;0.22;;;23.80;63.10;;;;;;4804337;29;20082;-79
2022/07/19 01:23:10;;;;;;;0.38;0.30;;;23.70;63.40;;;;;;4781689;29;20066;-77
2022/07/19 01:25:37;;;;;;;0.40;0.40;;;23.70;62.80;;;;;;4803588;29;20070;-77
2022/07/19 01:28:05;;;;;;;0.32;0.28;;;23.70;63.40;;;;;;4782233;29;20143;-77
2022/07/19 01:33:11;;;;;;;0.30;0.22;;;23.70;63.60;;;;;;5409941;24;20066;-87
2022/07/19 01:35:38;;;;;;;0.30;0.20;;;23.60;63.60;;;;;;4795265;29;20054;-87
2022/07/19 01:38:05;;;;;;;0.90;0.50;;;23.60;63.20;;;;;;4813289;29;20042;-87
2022/07/19 01:40:33;;;;;;;0.50;0.40;;;23.60;63.70;;;;;;4798318;29;20379;-87
2022/07/19 01:43:00;;;;;;;1.27;0.30;;;23.70;63.70;;;;;;4813685;29;20066;-88
2022/07/19 01:45:27;;;;;;;0.20;0.10;;;23.60;64.20;;;;;;4798917;29;20056;-87
2022/07/19 01:47:54;;;;;;;0.22;0.22;;;23.60;63.90;;;;;;4798203;29;20046;-87
2022/07/19 01:50:21;;;;;;;0.43;0.30;;;23.60;63.90;;;;;;4798552;29;20061;-88
2022/07/19 01:52:48;;;;;;;0.20;0.20;;;23.60;64.30;;;;;;4812772;29;20050;-88
2022/07/19 01:55:18;;;;;;;0.68;0.40;;;23.60;64.50;;;;;;4802632;29;20493;-88
2022/07/19 01:57:45;;;;;;;0.20;0.20;;;23.50;64.40;;;;;;4801577;29;20058;-88
2022/07/19 02:00:12;;;;;;;0.22;0.20;;;23.50;64.60;;;;;;4795845;29;20058;-88
2022/07/19 02:02:39;;;;;;;0.57;0.22;;;23.40;64.50;;;;;;4798964;29;20065;-87
2022/07/19 02:05:07;;;;;;;0.60;0.40;;;23.40;64.90;;;;;;4832444;29;20145;-88
2022/07/19 02:07:38;;;;;;;0.40;0.30;;;23.40;65.00;;;;;;4799822;29;20872;-87
2022/07/19 02:10:05;;;;;;;0.35;0.25;;;23.40;64.80;;;;;;4816275;29;20550;-88
2022/07/19 02:12:32;;;;;;;0.30;0.30;;;23.40;65.40;;;;;;4816233;29;20054;-88
2022/07/19 02:15:00;;;;;;;0.20;0.13;;;23.30;65.60;;;;;;4815124;29;20042;-88
2022/07/19 02:17:27;;;;;;;0.45;0.30;;;23.30;65.80;;;;;;4801496;29;20127;-90
2022/07/19 02:19:54;;;;;;;0.20;0.20;;;23.30;65.70;;;;;;4808404;29;20183;-89
2022/07/19 02:22:21;;;;;;;0.47;0.30;;;23.30;65.70;;;;;;4806445;29;20050;-86
2022/07/19 02:24:48;;;;;;;0.38;0.32;;;23.30;66.40;;;;;;4797432;29;20126;-89
2022/07/19 02:27:15;;;;;;;0.40;0.30;;;23.20;65.90;;;;;;4798209;29;20153;-88
2022/07/19 02:29:42;;;;;;;0.32;0.20;;;23.20;66.40;;;;;;4797968;29;20054;-89
2022/07/19 02:32:09;;;;;;;0.60;0.22;;;23.20;66.40;;;;;;4798437;29;20391;-89
2022/07/19 02:34:37;;;;;;;0.40;0.30;;;23.20;66.30;;;;;;4800928;29;20160;-89
2022/07/19 02:37:04;;;;;;;0.60;0.40;;;23.20;66.00;;;;;;4801279;29;20050;-87
2022/07/19 02:39:31;;;;;;;0.75;0.40;;;23.10;66.40;;;;;;4800422;29;20058;-88
2022/07/19 02:41:58;;;;;;;0.30;0.30;;;23.10;65.70;;;;;;4797072;29;20061;-89
2022/07/19 02:44:28;;;;;;;0.40;0.38;;;23.10;65.70;;;;;;4801015;29;20057;-89
2022/07/19 02:46:55;;;;;;;0.35;0.30;;;23.10;65.80;;;;;;4802389;29;20128;-89
2022/07/19 02:49:22;;;;;;;0.85;0.47;;;23.10;65.90;;;;;;4801279;29;20050;-89
2022/07/19 02:51:49;;;;;;;0.20;0.20;;;23.10;66.30;;;;;;4801264;29;20314;-89
2022/07/19 02:54:16;;;;;;;0.40;0.30;;;23.10;65.90;;;;;;4801081;29;20054;-90
2022/07/19 02:56:43;;;;;;;0.25;0.17;;;23.10;66.70;;;;;;4801111;29;20054;-91
2022/07/19 02:59:11;;;;;;;0.30;0.28;;;23.00;66.50;;;;;;4801324;29;20057;-89
2022/07/19 03:01:38;;;;;;;0.40;0.30;;;23.00;66.90;;;;;;4800948;29;20050;-89
2022/07/19 03:04:05;;;;;;;0.40;0.30;;;23.00;67.40;;;;;;4799794;29;20082;-88
2022/07/19 03:06:32;;;;;;;0.30;0.30;;;22.90;67.30;;;;;;4799860;29;20117;-90
2022/07/19 03:08:59;;;;;;;0.20;0.20;;;22.90;67.40;;;;;;4800458;29;20375;-89
2022/07/19 03:11:27;;;;;;;0.25;0.20;;;22.90;67.80;;;;;;4803195;29;20062;-89
2022/07/19 03:13:54;;;;;;;0.40;0.40;;;22.80;67.10;;;;;;4802432;29;20054;-89
2022/07/19 03:16:21;;;;;;;0.30;0.30;;;22.80;67.60;;;;;;4799980;29;20057;-88
2022/07/19 03:18:48;;;;;;;0.30;0.25;;;22.80;67.60;;;;;;4799910;29;20127;-90
2022/07/19 03:21:15;;;;;;;0.25;0.22;;;22.70;67.60;;;;;;4799495;29;20053;-90
2022/07/19 03:23:42;;;;;;;0.32;0.30;;;22.70;67.50;;;;;;4799314;29;20554;-89
2022/07/19 03:26:09;;;;;;;0.57;0.30;;;22.70;67.50;;;;;;4799396;29;20053;-86
2022/07/19 03:28:36;;;;;;;0.30;0.30;;;22.70;65.90;;;;;;4799496;29;20053;-89
2022/07/19 03:31:03;;;;;;;0.28;0.28;;;22.70;66.70;;;;;;4800400;29;20082;-89
2022/07/19 03:33:31;;;;;;;0.30;0.30;;;22.70;67.20;;;;;;4799341;29;20058;-89
2022/07/19 03:35:58;;;;;;;0.20;0.20;;;22.70;66.80;;;;;;4801346;29;20076;-88
2022/07/19 03:38:25;;;;;;;0.30;0.30;;;22.70;66.50;;;;;;4800279;29;20091;-89
2022/07/19 03:40:52;;;;;;;0.20;0.20;;;22.70;66.60;;;;;;4800264;29;20105;-89
2022/07/19 03:43:20;;;;;;;0.30;0.20;;;22.70;66.90;;;;;;4799217;29;20084;-89
2022/07/19 03:45:47;;;;;;;1.33;0.40;;;22.70;67.10;;;;;;4799897;29;20049;-91
2022/07/19 03:48:14;;;;;;;0.32;0.20;;;22.70;66.50;;;;;;4798887;29;20185;-89
2022/07/19 03:50:41;;;;;;;0.15;0.15;;;22.70;67.30;;;;;;4799619;29;20131;-89
2022/07/19 03:53:08;;;;;;;0.63;0.30;;;22.70;67.30;;;;;;4800378;29;20052;-90
2022/07/19 03:55:36;;;;;;;0.50;0.20;;;22.70;67.50;;;;;;4799724;29;20072;-90
2022/07/19 03:58:03;;;;;;;0.28;0.20;;;22.70;67.90;;;;;;4799618;29;20054;-90
2022/07/19 04:00:30;;;;;;;0.50;0.38;;;22.70;67.70;;;;;;4800585;29;20054;-88
2022/07/19 04:02:57;;;;;;;0.57;0.30;;;22.60;67.90;;;;;;4802969;29;20050;-89
2022/07/19 04:05:24;;;;;;;0.28;0.20;;;22.60;68.10;;;;;;4805349;29;20105;-87
2022/07/19 04:07:51;;;;;;;0.43;0.30;;;22.60;68.40;;;;;;4813178;29;20057;-87
2022/07/19 04:10:19;;;;;;;0.30;0.20;;;22.60;68.20;;;;;;4799410;29;20279;-86
2022/07/19 04:12:46;;;;;;;0.30;0.25;;;22.50;68.40;;;;;;4799757;29;20061;-87
2022/07/19 04:15:13;;;;;;;3.10;0.28;;;22.50;68.50;;;;;;4795700;29;20137;-89
2022/07/19 04:17:40;;;;;;;0.20;0.20;;;22.50;68.90;;;;;;4794976;29;20170;-89
2022/07/19 04:20:07;;;;;;;0.13;0.13;;;22.50;69.50;;;;;;4796274;29;20461;-89
2022/07/19 04:22:34;;;;;;;0.20;0.17;;;22.50;69.00;;;;;;4797117;29;20145;-89
2022/07/19 04:25:02;;;;;;;0.45;0.20;;;22.50;68.30;;;;;;4798971;29;20103;-89
2022/07/19 04:27:32;;;;;;;0.20;0.20;;;22.50;68.90;;;;;;4799574;29;20053;-89
2022/07/19 04:29:59;;;;;;;0.20;0.20;;;22.50;71.50;;;;;;4799225;29;20127;-88
2022/07/19 05:18:43;;;;;;;0.37;0.30;;;23.70;65.60;;;;;;5871394;24;20040;31
2022/07/19 05:21:10;;;;;;;0.82;0.60;;;23.80;65.60;;;;;;4763048;30;20075;-78
2022/07/19 05:23:37;;;;;;;0.55;0.35;;;23.90;65.40;;;;;;4765706;30;20140;-77
2022/07/19 05:26:04;;;;;;;0.88;0.75;;;23.90;65.80;;;;;;4749033;30;20067;-80
2022/07/19 05:28:31;;;;;;;0.40;0.30;;;23.90;67.30;;;;;;4747726;30;20060;-78
2022/07/19 05:31:03;;;;;;;0.57;0.40;;;24.00;66.50;;;;;;4743650;30;20080;-78
2022/07/19 05:33:30;;;;;;;0.30;0.30;;;24.10;65.90;;;;;;4740065;30;20139;-79
2022/07/19 05:35:56;;;;;;;1.08;0.47;;;24.10;65.00;;;;;;4745231;30;20055;-84
2022/07/19 05:38:23;;;;;;;0.28;0.28;;;24.30;64.80;;;;;;4743622;30;20063;-79
2022/07/19 05:40:50;;;;;;;0.47;0.30;;;24.30;64.50;;;;;;4753822;30;20063;-79
2022/07/19 05:43:17;;;;;;;0.50;0.30;;;24.40;65.30;;;;;;4758207;30;20112;-76
2022/07/19 05:45:44;;;;;;;0.63;0.40;;;24.50;63.50;;;;;;4761986;30;20527;-79
2022/07/19 05:48:11;;;;;;;0.45;0.45;;;24.60;64.10;;;;;;4748512;30;20135;-78
2022/07/19 05:50:38;;;;;;;0.70;0.50;;;24.70;63.40;;;;;;4744750;30;20079;-77
2022/07/19 05:53:05;;;;;;;0.82;0.52;;;24.90;62.30;;;;;;4758196;30;20127;-77
2022/07/19 05:55:33;;;;;;;0.55;0.55;;;25.10;62.50;;;;;;4764008;30;20101;-81
2022/07/19 05:58:00;;;;;;;0.40;0.38;;;25.20;62.80;;;;;;4762190;30;20087;-77
2022/07/19 06:00:27;;;;;;;0.20;0.20;;;25.30;61.80;;;;;;4749279;30;20080;-85
2022/07/19 06:02:54;;;;;;;0.85;0.30;;;25.40;61.60;;;;;;4766086;30;20113;-84
2022/07/19 06:05:22;;;;;;;0.45;0.20;;;25.60;61.30;;;;;;4770805;29;20051;-78
2022/07/19 06:07:48;;;;;;;0.38;0.30;;;25.60;60.80;;;;;;4756587;30;20112;-77
2022/07/19 06:10:15;;;;;;;0.60;0.38;;;25.80;61.50;;;;;;4761193;30;20054;-84
2022/07/19 06:12:42;;;;;;;0.30;0.30;;;25.90;60.30;;;;;;4759975;30;20117;-77
2022/07/19 06:15:10;;;;;;;0.30;0.22;;;26.00;59.90;;;;;;4751626;30;20047;-77
2022/07/19 06:17:37;;;;;;;0.75;0.38;;;26.20;59.70;;;;;;4729872;30;20066;-78
2022/07/19 06:20:04;;;;;;;0.63;0.50;;;26.20;59.80;;;;;;4729929;30;20083;-77
2022/07/19 06:22:32;;;;;;;0.45;0.20;;;26.30;59.50;;;;;;4760963;30;20059;-78
2022/07/19 06:24:59;;;;;;;0.60;0.40;;;26.40;59.60;;;;;;4738289;30;20207;-78
2022/07/19 06:27:26;;;;;;;0.20;0.20;;;26.50;58.90;;;;;;4748675;30;20052;-77
2022/07/19 06:29:53;;;;;;;0.30;0.30;;;26.60;58.40;;;;;;4760795;30;20508;-77
2022/07/19 06:32:20;;;;;;;0.22;0.20;;;26.70;58.40;;;;;;4730609;30;20052;-77
2022/07/19 06:34:47;;;;;;;0.30;0.30;;;26.90;58.40;;;;;;4772416;30;20524;-76
2022/07/19 06:37:14;;;;;;;0.22;0.22;;;27.00;57.90;;;;;;4753620;30;20117;-86
2022/07/19 06:39:41;;;;;;;0.30;0.25;;;27.00;58.50;;;;;;4753475;30;20056;-76
2022/07/19 06:42:08;;;;;;;0.30;0.30;;;27.10;58.30;;;;;;4738024;30;20060;-77
2022/07/19 06:44:35;;;;;;;0.50;0.40;;;27.20;58.20;;;;;;4751396;30;20113;-77
2022/07/19 06:47:02;;;;;;;0.65;0.38;;;27.30;58.30;;;;;;4767349;30;20067;-84
2022/07/19 06:49:28;;;;;;;0.32;0.30;;;27.40;58.10;;;;;;4766388;30;20117;-77
2022/07/19 06:51:55;;;;;;;0.30;0.20;;;27.40;58.00;;;;;;4752150;30;20149;-77
2022/07/19 06:54:22;;;;;;;0.20;0.20;;;27.50;57.70;;;;;;4722252;30;20083;-77
2022/07/19 06:56:49;;;;;;;0.32;0.30;;;27.60;57.60;;;;;;4768154;30;20492;-77
2022/07/19 06:59:15;;;;;;;0.43;0.30;;;27.60;57.50;;;;;;4722345;30;20048;-77
2022/07/19 07:01:42;;;;;;;0.70;0.20;;;27.70;57.20;;;;;;4736328;30;20060;-77
2022/07/19 07:04:09;;;;;;;0.30;0.30;;;27.80;57.60;;;;;;4763036;30;20059;-77
2022/07/19 07:06:36;;;;;;;0.28;0.20;;;27.90;57.00;;;;;;4720457;30;20056;-77
2022/07/19 07:09:03;;;;;;;0.17;0.17;;;28.00;56.90;;;;;;4737133;30;20051;-76
2022/07/19 07:11:30;;;;;;;0.13;0.13;;;28.10;56.40;;;;;;4751804;30;20056;-77
2022/07/19 07:13:57;;;;;;;0.20;0.20;;;28.20;56.90;;;;;;4751731;30;20051;-78
2022/07/19 07:16:24;;;;;;;1.17;0.30;;;28.30;55.70;;;;;;4722871;30;20059;-77
2022/07/19 07:18:51;;;;;;;0.40;0.25;;;28.40;55.90;;;;;;4766657;30;20160;-76
2022/07/19 07:21:18;;;;;;;0.20;0.13;;;28.50;55.90;;;;;;4767808;30;20122;-77
2022/07/19 07:23:45;;;;;;;0.50;0.30;;;28.60;55.30;;;;;;4723688;30;20306;-77
2022/07/19 07:26:12;;;;;;;0.85;0.30;;;28.60;54.90;;;;;;4737111;30;20071;-77
2022/07/19 07:28:39;;;;;;;0.52;0.38;;;28.70;55.00;;;;;;4751021;30;20060;-77
2022/07/19 07:31:06;;;;;;;0.63;0.20;;;28.80;54.90;;;;;;4736340;30;20497;-77
2022/07/19 07:33:33;;;;;;;0.22;0.20;;;28.90;54.80;;;;;;4735205;30;20075;-77
2022/07/19 07:35:59;;;;;;;0.20;0.20;;;29.00;54.30;;;;;;4750982;30;20113;-77
2022/07/19 07:38:26;;;;;;;0.57;0.57;;;29.10;53.80;;;;;;4767051;30;20145;-78
2022/07/19 07:40:53;;;;;;;0.40;0.30;;;29.20;54.20;;;;;;4750835;30;20405;-77
2022/07/19 07:43:40;;;;;;;1.05;0.38;;;29.30;53.60;;;;;;4740903;30;20521;-77
2022/07/19 07:46:07;;;;;;;0.30;0.20;;;29.40;53.70;;;;;;4766344;30;20059;-77
2022/07/19 07:48:34;;;;;;;0.57;0.30;;;29.50;53.60;;;;;;4750209;30;20059;-78
2022/07/19 07:51:01;;;;;;;0.50;0.38;;;29.60;53.50;;;;;;4782163;29;20051;-77
2022/07/19 07:53:47;;;;;;;0.60;0.30;;;29.70;54.20;;;;;;4775904;30;20066;-79
2022/07/19 07:56:15;;;;;;;0.47;0.38;;;29.80;54.00;;;;;;4736197;30;20078;-77
2022/07/19 07:58:43;;;;;;;0.68;0.50;;;29.80;53.20;;;;;;4750312;30;20059;-76
2022/07/19 08:01:09;;;;;;;0.50;0.47;;;29.90;53.20;;;;;;4765071;30;20097;-77
2022/07/19 08:03:36;;;;;;;0.73;0.57;;;30.00;53.20;;;;;;4764778;30;20059;-77
2022/07/19 08:06:03;;;;;;;0.50;0.32;;;30.10;53.60;;;;;;4766404;30;20128;-77
2022/07/19 08:08:30;;;;;;;2.38;0.60;;;30.20;53.20;;;;;;4766600;30;20068;-77
2022/07/19 08:10:57;;;;;;;0.70;0.40;;;30.30;52.80;;;;;;4766213;30;20056;-77
2022/07/19 08:13:24;;;;;;;0.50;0.40;;;30.40;52.70;;;;;;4747167;30;20576;-77
2022/07/19 08:15:51;;;;;;;0.45;0.40;;;30.50;52.70;;;;;;4763561;30;20062;-77
2022/07/19 08:18:19;;;;;;;2.05;0.60;;;30.50;52.50;;;;;;4748412;30;20105;-77
2022/07/19 08:20:46;;;;;;;0.80;0.50;;;30.60;52.20;;;;;;4750242;30;20532;-77
2022/07/19 08:23:13;;;;;;;0.65;0.50;;;30.70;52.40;;;;;;4765097;30;20059;-77
2022/07/19 08:25:40;;;;;;;0.32;0.30;;;30.80;53.10;;;;;;4732293;30;20070;-77
2022/07/19 08:28:06;;;;;;;0.60;0.50;;;30.90;53.60;;;;;;4718498;30;20060;-78
2022/07/19 08:30:33;;;;;;;0.35;0.30;;;31.00;52.60;;;;;;4750590;30;20206;-77
2022/07/19 08:33:20;;;;;;;0.40;0.40;;;31.10;52.50;;;;;;4727523;30;20086;-76
2022/07/19 08:35:47;;;;;;;0.30;0.30;;;31.20;52.50;;;;;;4750233;30;20047;-76
2022/07/19 08:38:21;;;;;;;0.63;0.38;;;31.30;52.80;;;;;;4751062;30;20060;-78
2022/07/19 08:40:48;;;;;;;0.57;0.40;;;31.40;53.00;;;;;;4735365;30;20515;-78
2022/07/19 08:43:15;;;;;;;0.60;0.30;;;31.50;52.50;;;;;;4734983;30;20059;-77
2022/07/19 08:45:42;;;;;;;0.40;0.40;;;31.60;53.00;;;;;;4750158;30;20057;-78
2022/07/19 08:48:09;;;;;;;0.77;0.50;;;31.70;51.90;;;;;;4748735;30;20458;-78
2022/07/19 08:50:36;;;;;;;0.77;0.50;;;31.80;53.40;;;;;;4735539;30;20063;-78
2022/07/19 08:53:03;;;;;;;0.80;0.43;;;31.80;52.30;;;;;;4746643;30;20495;-78
2022/07/19 08:55:30;;;;;;;0.40;0.40;;;31.90;51.90;;;;;;4762311;30;20056;-77
2022/07/19 08:57:57;;;;;;;0.55;0.40;;;31.90;52.80;;;;;;4764861;30;20117;-78
2022/07/19 09:00:28;;;;;;;0.32;0.32;;;32.00;52.00;;;;;;4734898;30;20053;-78
2022/07/19 09:03:05;;;;;;;0.88;0.40;;;32.10;52.70;;;;;;4748860;30;20133;-78
2022/07/19 09:05:33;;;;;;;1.15;0.63;;;32.10;51.80;;;;;;4749463;30;20063;-80
2022/07/19 09:08:09;;;;;;;0.65;0.65;;;32.20;52.70;;;;;;4735492;30;20086;-77
2022/07/19 09:10:41;;;;;;;0.93;0.70;;;32.20;51.90;;;;;;4749668;30;20508;-77
2022/07/19 09:13:11;;;;;;;0.63;0.57;;;32.30;51.70;;;;;;4764614;30;20124;-78
2022/07/19 09:15:50;;;;;;;1.17;0.68;;;32.30;51.90;;;;;;4765269;30;20527;-78
2022/07/19 09:18:24;;;;;;;0.63;0.40;;;32.40;52.90;;;;;;4734405;30;20436;-77
2022/07/19 09:20:52;;;;;;;0.73;0.63;;;32.60;52.20;;;;;;4765589;30;20051;-79
2022/07/19 09:23:19;;;;;;;0.60;0.52;;;32.60;52.10;;;;;;4747785;30;20114;-77
2022/07/19 09:25:48;;;;;;;0.70;0.60;;;32.60;52.50;;;;;;4746183;30;20097;-77
2022/07/19 09:28:16;;;;;;;1.25;0.60;;;32.60;52.50;;;;;;4745761;30;20113;-78
2022/07/19 09:30:47;;;;;;;0.80;0.70;;;32.70;52.80;;;;;;4763047;30;20063;-78
2022/07/19 09:33:16;;;;;;;0.73;0.50;;;32.70;52.40;;;;;;4734354;30;20113;-77
2022/07/19 09:35:50;;;;;;;0.57;0.50;;;32.80;53.00;;;;;;4765287;30;20307;-78
2022/07/19 09:38:34;;;;;;;0.47;0.47;;;32.80;53.00;;;;;;4764932;30;20113;-79
2022/07/19 09:41:07;;;;;;;0.60;0.50;;;32.80;52.40;;;;;;4764986;30;20060;-77
2022/07/19 09:43:56;;;;;;;0.73;0.65;;;33.00;52.80;;;;;;4764759;30;20389;-77
2022/07/19 09:46:45;;;;;;;0.63;0.63;;;33.10;52.50;;;;;;4748430;30;20063;-78
2022/07/19 09:49:13;;;;;;;0.85;0.70;;;33.10;53.00;;;;;;4748833;30;20518;-77
2022/07/19 09:51:50;;;;;;;0.82;0.60;;;33.30;53.00;;;;;;4749513;30;20105;-77
2022/07/19 09:54:21;;;;;;;0.60;0.55;;;33.30;52.20;;;;;;4761184;30;20087;-78
2022/07/19 09:56:49;;;;;;;0.60;0.60;;;33.40;52.00;;;;;;4746631;30;20055;-78
2022/07/19 09:59:17;;;;;;;0.70;0.65;;;33.50;52.20;;;;;;4761035;30;20060;-78
2022/07/19 10:01:44;;;;;;;0.80;0.60;;;33.60;52.50;;;;;;4746235;30;20419;-78
2022/07/19 10:04:12;;;;;;;0.70;0.57;;;33.70;52.70;;;;;;4733653;30;20113;-79
2022/07/19 10:06:40;;;;;;;0.55;0.55;;;33.70;52.20;;;;;;4749747;30;20063;-77
2022/07/19 10:09:08;;;;;;;1.02;0.60;;;33.80;51.10;;;;;;4748619;30;20113;-78
2022/07/19 10:11:35;;;;;;;0.60;0.45;;;34.00;51.50;;;;;;4734686;30;20060;-77
2022/07/19 10:14:02;;;;;;;0.68;0.50;;;34.10;51.40;;;;;;4764270;30;20052;-77
2022/07/19 10:17:17;;;;;;;1.15;0.77;;;34.20;50.00;;;;;;4749153;30;20074;-78
2022/07/19 10:19:48;;;;;;;0.85;0.57;;;34.30;49.10;;;;;;4758922;30;20067;-78
2022/07/19 10:22:25;;;;;;;1.20;0.60;;;34.40;49.30;;;;;;4751623;30;20113;-78
2022/07/19 10:24:53;;;;;;;0.93;0.65;;;34.50;49.20;;;;;;4747438;30;20058;-77
2022/07/19 10:27:23;;;;;;;2.10;1.20;;;34.60;49.40;;;;;;4748276;30;20106;-78
2022/07/19 10:29:56;;;;;;;1.05;0.80;;;34.70;49.10;;;;;;4765451;30;20056;-77
2022/07/19 10:32:30;;;;;;;1.75;0.95;;;34.80;48.50;;;;;;4749311;30;20129;-77
2022/07/19 10:35:21;;;;;;;1.83;1.00;;;34.90;47.40;;;;;;4763047;30;20151;-78
2022/07/19 10:37:50;;;;;;;1.65;1.02;;;35.00;47.00;;;;;;4766420;30;20565;-79
2022/07/19 10:40:43;;;;;;;1.45;0.70;;;35.10;46.80;;;;;;4750592;30;20056;-79
2022/07/19 10:43:16;;;;;;;1.48;1.00;;;35.20;47.50;;;;;;4744782;30;20486;-79
2022/07/19 10:46:04;;;;;;;0.85;0.70;;;35.40;46.80;;;;;;4767015;30;20055;-78
2022/07/19 10:48:41;;;;;;;1.40;0.90;;;35.60;47.10;;;;;;4765866;30;20058;-79
2022/07/19 10:51:26;;;;;;;0.88;0.70;;;35.60;47.20;;;;;;4737213;30;20147;-79
2022/07/19 10:54:22;;;;;;;0.93;0.70;;;35.70;45.40;;;;;;4766441;30;20090;-77
2022/07/19 10:56:58;;;;;;;0.73;0.70;;;35.70;46.30;;;;;;4754933;30;20087;-77
2022/07/19 10:59:37;;;;;;;0.90;0.70;;;35.80;45.80;;;;;;4735406;30;20055;-78
2022/07/19 11:02:05;;;;;;;0.95;0.73;;;36.00;46.00;;;;;;4751049;30;20060;-77
2022/07/19 11:04:52;;;;;;;0.90;0.70;;;36.10;46.70;;;;;;4752612;30;20060;-85
2022/07/19 11:07:20;;;;;;;0.70;0.60;;;36.20;45.20;;;;;;4766520;30;20542;-79
2022/07/19 11:09:57;;;;;;;0.77;0.68;;;36.30;45.70;;;;;;4749725;30;20102;-77
2022/07/19 11:12:26;;;;;;;4.35;0.88;;;36.40;45.30;;;;;;4766935;30;20480;-78
2022/07/19 11:14:54;;;;;;;0.90;0.68;;;36.50;44.50;;;;;;4750175;30;20063;-77
2022/07/19 11:17:49;;;;;;;1.10;0.80;;;36.50;43.90;;;;;;4765742;30;20542;-79
2022/07/19 11:20:18;;;;;;;0.93;0.70;;;36.60;44.60;;;;;;4724824;30;1268781;-77
2022/07/19 11:22:46;;;;;;;0.80;0.60;;;36.70;44.70;;;;;;4751488;30;20146;-82
2022/07/19 11:25:14;;;;;;;1.65;1.00;;;36.90;44.10;;;;;;4733469;30;20397;-78
2022/07/19 11:27:45;;;;;;;2.83;1.02;;;37.00;43.00;;;;;;4733528;30;20492;-77
2022/07/19 11:30:12;;;;;;;1.20;0.85;;;37.10;43.90;;;;;;4751085;30;20055;-77
2022/07/19 11:32:41;;;;;;;1.17;0.90;;;37.20;43.90;;;;;;4751474;30;20056;-78
2022/07/19 11:35:09;;;;;;;0.95;0.88;;;37.40;43.40;;;;;;4750608;30;20056;-77
2022/07/19 11:37:39;;;;;;;0.68;0.55;;;37.70;43.30;;;;;;4766682;30;20063;-77
2022/07/19 11:40:07;;;;;;;1.02;0.80;;;38.00;42.80;;;;;;4766308;30;20052;-77
2022/07/19 11:42:38;;;;;;;0.90;0.80;;;38.20;43.30;;;;;;4736921;30;20524;-78
2022/07/19 11:45:25;;;;;;;0.95;0.70;;;38.30;42.70;;;;;;4753579;30;20150;-77
2022/07/19 11:47:54;;;;;;;0.77;0.60;;;38.50;41.50;;;;;;4766562;30;20099;-77
2022/07/19 11:50:26;;;;;;;0.90;0.60;;;38.70;42.30;;;;;;4750412;30;20052;-78
2022/07/19 11:52:53;;;;;;;;;;;39.00;41.30;;;;;;4751562;30;20458;-78
2022/07/19 11:55:25;;;;;;;1.45;0.98;;;39.20;42.30;;;;;;4766562;30;20340;-78
2022/07/19 11:57:52;;;;;;;1.52;1.05;;;39.30;40.80;;;;;;4750994;30;20059;-77
2022/07/19 12:00:19;;;;;;;1.45;0.85;;;39.40;40.80;;;;;;4735454;30;20101;-77
2022/07/19 12:02:53;;;;;;;1.30;0.70;;;39.40;42.00;;;;;;4735378;30;20604;-78
2022/07/19 12:05:20;;;;;;;1.08;0.90;;;39.60;41.00;;;;;;4736104;30;20056;-77
2022/07/19 12:07:47;;;;;;;0.75;0.65;;;39.90;41.40;;;;;;4750365;30;20067;-77
2022/07/19 12:10:37;;;;;;;0.68;0.50;;;40.20;41.80;;;;;;4749750;30;20060;-78
2022/07/19 12:13:05;;;;;;;0.70;0.63;;;40.50;40.50;;;;;;4765204;30;20113;-77
2022/07/19 12:15:54;;;;;;;2.00;1.10;;;40.80;40.10;;;;;;4747113;30;20059;-77
2022/07/19 12:18:43;;;;;;;1.63;0.93;;;41.00;40.60;;;;;;4762305;30;20071;-78
2022/07/19 12:21:34;;;;;;;0.90;0.57;;;41.30;39.50;;;;;;4741861;30;20437;-78
2022/07/19 12:24:19;;;;;;;1.58;0.80;;;41.50;39.30;;;;;;4764058;30;20059;-78
2022/07/19 12:26:54;;;;;;;0.90;0.70;;;41.70;40.00;;;;;;4763140;30;20105;-77
2022/07/19 12:29:46;;;;;;;1.08;0.80;;;42.00;39.20;;;;;;4746176;30;20056;-77
2022/07/19 12:32:33;;;;;;;1.02;0.93;;;42.00;39.00;;;;;;4763539;30;20519;-78
2022/07/19 12:35:04;;;;;;;1.02;0.80;;;42.10;39.20;;;;;;4764082;30;20051;-77
2022/07/19 12:37:35;;;;;;;1.17;0.75;;;42.20;38.30;;;;;;4764427;30;20238;-77
2022/07/19 12:40:12;;;;;;;0.93;0.90;;;42.50;38.50;;;;;;4764601;30;20067;-78
2022/07/19 12:42:46;;;;;;;1.27;0.88;;;42.60;39.20;;;;;;4763192;30;20087;-78
2022/07/19 12:45:22;;;;;;;1.88;1.02;;;42.70;38.00;;;;;;4764051;30;20495;-78
2022/07/19 12:47:50;;;;;;;1.20;0.80;;;42.80;38.70;;;;;;4761331;30;20056;-78
2022/07/19 12:50:24;;;;;;;0.85;0.70;;;42.90;38.80;;;;;;4762100;30;20047;-78
2022/07/19 12:52:52;;;;;;;0.57;0.57;;;43.30;37.90;;;;;;4764141;30;20059;-79
2022/07/19 12:55:20;;;;;;;0.80;0.80;;;43.60;39.10;;;;;;4764704;30;20051;-79
2022/07/19 12:57:50;;;;;;;1.83;1.05;;;43.80;38.20;;;;;;4748643;30;20086;-82
2022/07/19 13:00:17;;;;;;;0.82;0.80;;;43.80;37.60;;;;;;4749125;30;20143;-78
2022/07/19 13:02:44;;;;;;;1.42;0.98;;;43.80;38.50;;;;;;4755241;30;20105;-78
2022/07/19 13:05:11;;;;;;;0.93;0.65;;;43.90;37.70;;;;;;4764955;30;20060;-79
2022/07/19 13:07:38;;;;;;;1.63;1.00;;;44.30;39.10;;;;;;4749747;30;20090;-79
2022/07/19 13:10:06;;;;;;;1.48;0.95;;;44.40;37.60;;;;;;4763321;30;20664;-79
2022/07/19 13:12:33;;;;;;;1.67;1.10;;;44.60;37.80;;;;;;4763492;30;20083;-80
2022/07/19 13:15:00;;;;;;;0.88;0.80;;;44.60;37.30;;;;;;4762235;30;20056;-81
2022/07/19 13:17:27;;;;;;;1.35;1.10;;;44.60;37.10;;;;;;4748089;30;20105;-79
2022/07/19 13:19:53;;;;;;;1.10;0.90;;;44.60;37.50;;;;;;4747454;30;20101;-80
2022/07/19 13:22:20;;;;;;;2.30;1.00;;;45.00;37.10;;;;;;4764863;30;20051;-80
2022/07/19 13:24:47;;;;;;;1.30;0.95;;;45.10;37.30;;;;;;4760641;30;20067;-80
2022/07/19 13:27:34;;;;;;;0.82;0.80;;;45.30;37.40;;;;;;4747408;30;20589;-79
2022/07/19 13:30:01;;;;;;;1.13;0.95;;;45.40;37.20;;;;;;4746165;30;20112;-79
2022/07/19 13:32:28;;;;;;;1.00;0.90;;;45.60;38.30;;;;;;4761611;30;20087;-80
2022/07/19 13:34:55;;;;;;;0.63;0.63;;;45.70;37.60;;;;;;4744573;30;20105;-80
2022/07/19 13:37:22;;;;;;;0.85;0.60;;;45.80;38.50;;;;;;4759863;30;20083;-79
2022/07/19 13:39:48;;;;;;;1.10;0.90;;;46.00;37.80;;;;;;4762153;30;20447;-79
2022/07/19 13:42:15;;;;;;;1.38;0.80;;;46.20;37.90;;;;;;4746159;30;20052;-79
2022/07/19 13:44:42;;;;;;;1.75;0.98;;;46.20;38.30;;;;;;4745034;30;20063;-78
2022/07/19 13:47:09;;;;;;;1.02;0.70;;;46.40;38.50;;;;;;4763276;30;20073;-79
2022/07/19 13:49:35;;;;;;;0.70;0.70;;;46.80;39.00;;;;;;4762857;30;20059;-79